sensor_id;sensor_type;location;lat;lon;timestamp;P1;durP1;ratioP1;P2;durP2;ratioP2
9821;SDS011;4950;46.042;14.472;2023-06-22T00:01:56;10.52;;;7.03;;
9821;SDS011;4950;46.042;14.472;2023-06-22T00:04:22;14.35;;;7.40;;
9821;SDS011;4950;46.042;14.472;2023-06-22T00:06:49;13.43;;;7.50;;
9821;SDS011;4950;46.042;14.472;2023-06-22T00:09:16;16.55;;;8.30;;
9821;SDS011;4950;46.042;14.472;2023-06-22T00:11:42;11.65;;;7.13;;
9821;SDS011;4950;46.042;14.472;2023-06-22T00:14:09;12.43;;;7.32;;
9821;SDS011;4950;46.042;14.472;2023-06-22T00:16:37;13.35;;;7.13;;
9821;SDS011;4950;46.042;14.472;2023-06-22T00:19:03;15.60;;;7.65;;
9821;SDS011;4950;46.042;14.472;2023-06-22T00:21:30;14.82;;;7.10;;
9821;SDS011;4950;46.042;14.472;2023-06-22T00:23:59;13.45;;;7.32;;
9821;SDS011;4950;46.042;14.472;2023-06-22T00:26:26;13.45;;;7.60;;
9821;SDS011;4950;46.042;14.472;2023-06-22T00:28:52;14.63;;;7.82;;
9821;SDS011;4950;46.042;14.472;2023-06-22T00:31:19;17.45;;;7.70;;
9821;SDS011;4950;46.042;14.472;2023-06-22T00:33:47;9.15;;;6.70;;
9821;SDS011;4950;46.042;14.472;2023-06-22T00:36:15;13.85;;;8.38;;
9821;SDS011;4950;46.042;14.472;2023-06-22T00:38:42;12.07;;;7.03;;
9821;SDS011;4950;46.042;14.472;2023-06-22T00:41:09;14.02;;;7.60;;
9821;SDS011;4950;46.042;14.472;2023-06-22T00:43:36;11.38;;;6.85;;
9821;SDS011;4950;46.042;14.472;2023-06-22T00:46:02;16.02;;;8.30;;
9821;SDS011;4950;46.042;14.472;2023-06-22T00:48:29;14.20;;;7.75;;
9821;SDS011;4950;46.042;14.472;2023-06-22T00:50:57;15.52;;;7.65;;
9821;SDS011;4950;46.042;14.472;2023-06-22T00:53:24;11.70;;;7.50;;
9821;SDS011;4950;46.042;14.472;2023-06-22T00:55:50;20.50;;;7.65;;
9821;SDS011;4950;46.042;14.472;2023-06-22T00:58:17;20.20;;;8.75;;
9821;SDS011;4950;46.042;14.472;2023-06-22T01:00:46;12.50;;;7.53;;
9821;SDS011;4950;46.042;14.472;2023-06-22T01:03:14;13.77;;;6.90;;
9821;SDS011;4950;46.042;14.472;2023-06-22T01:05:42;12.70;;;7.55;;
9821;SDS011;4950;46.042;14.472;2023-06-22T01:08:23;19.17;;;8.07;;
9821;SDS011;4950;46.042;14.472;2023-06-22T01:10:58;18.63;;;8.48;;
9821;SDS011;4950;46.042;14.472;2023-06-22T01:13:35;18.48;;;8.25;;
9821;SDS011;4950;46.042;14.472;2023-06-22T01:16:07;12.23;;;8.35;;
9821;SDS011;4950;46.042;14.472;2023-06-22T01:18:37;14.43;;;8.45;;
9821;SDS011;4950;46.042;14.472;2023-06-22T01:21:08;14.82;;;8.52;;
9821;SDS011;4950;46.042;14.472;2023-06-22T01:23:46;14.40;;;8.90;;
9821;SDS011;4950;46.042;14.472;2023-06-22T01:26:19;13.20;;;7.97;;
9821;SDS011;4950;46.042;14.472;2023-06-22T01:28:54;12.15;;;7.07;;
9821;SDS011;4950;46.042;14.472;2023-06-22T01:31:24;13.95;;;7.25;;
9821;SDS011;4950;46.042;14.472;2023-06-22T01:33:55;11.38;;;7.40;;
9821;SDS011;4950;46.042;14.472;2023-06-22T01:36:24;14.30;;;7.50;;
9821;SDS011;4950;46.042;14.472;2023-06-22T01:38:52;12.07;;;7.40;;
9821;SDS011;4950;46.042;14.472;2023-06-22T01:41:20;11.90;;;7.37;;
9821;SDS011;4950;46.042;14.472;2023-06-22T01:43:48;13.38;;;7.40;;
9821;SDS011;4950;46.042;14.472;2023-06-22T01:46:16;11.32;;;6.88;;
9821;SDS011;4950;46.042;14.472;2023-06-22T01:48:45;14.30;;;7.80;;
9821;SDS011;4950;46.042;14.472;2023-06-22T01:51:13;16.23;;;7.30;;
9821;SDS011;4950;46.042;14.472;2023-06-22T01:53:40;13.45;;;7.25;;
9821;SDS011;4950;46.042;14.472;2023-06-22T01:56:07;12.63;;;7.28;;
9821;SDS011;4950;46.042;14.472;2023-06-22T01:58:34;15.68;;;8.05;;
9821;SDS011;4950;46.042;14.472;2023-06-22T02:01:09;12.57;;;7.55;;
9821;SDS011;4950;46.042;14.472;2023-06-22T02:03:40;18.13;;;8.05;;
9821;SDS011;4950;46.042;14.472;2023-06-22T02:06:10;13.75;;;7.38;;
9821;SDS011;4950;46.042;14.472;2023-06-22T02:08:45;15.05;;;8.35;;
9821;SDS011;4950;46.042;14.472;2023-06-22T02:11:15;17.02;;;7.10;;
9821;SDS011;4950;46.042;14.472;2023-06-22T02:13:45;12.40;;;7.72;;
9821;SDS011;4950;46.042;14.472;2023-06-22T02:16:13;13.75;;;7.50;;
9821;SDS011;4950;46.042;14.472;2023-06-22T02:18:46;12.80;;;7.10;;
9821;SDS011;4950;46.042;14.472;2023-06-22T02:21:16;12.13;;;7.90;;
9821;SDS011;4950;46.042;14.472;2023-06-22T02:23:42;12.70;;;7.70;;
9821;SDS011;4950;46.042;14.472;2023-06-22T02:26:09;10.88;;;7.28;;
9821;SDS011;4950;46.042;14.472;2023-06-22T02:28:36;12.60;;;7.35;;
9821;SDS011;4950;46.042;14.472;2023-06-22T02:31:02;13.60;;;7.82;;
9821;SDS011;4950;46.042;14.472;2023-06-22T02:33:29;11.65;;;7.35;;
9821;SDS011;4950;46.042;14.472;2023-06-22T02:35:57;13.85;;;8.27;;
9821;SDS011;4950;46.042;14.472;2023-06-22T02:38:23;15.83;;;7.80;;
9821;SDS011;4950;46.042;14.472;2023-06-22T02:40:50;12.10;;;7.07;;
9821;SDS011;4950;46.042;14.472;2023-06-22T02:43:17;13.15;;;7.90;;
9821;SDS011;4950;46.042;14.472;2023-06-22T02:45:44;13.05;;;7.82;;
9821;SDS011;4950;46.042;14.472;2023-06-22T02:48:10;16.80;;;9.20;;
9821;SDS011;4950;46.042;14.472;2023-06-22T02:50:37;13.45;;;8.05;;
9821;SDS011;4950;46.042;14.472;2023-06-22T02:53:05;15.07;;;8.00;;
9821;SDS011;4950;46.042;14.472;2023-06-22T02:55:31;17.17;;;8.40;;
9821;SDS011;4950;46.042;14.472;2023-06-22T02:57:58;10.38;;;7.72;;
9821;SDS011;4950;46.042;14.472;2023-06-22T03:00:25;14.57;;;9.25;;
9821;SDS011;4950;46.042;14.472;2023-06-22T03:02:56;17.73;;;9.15;;
9821;SDS011;4950;46.042;14.472;2023-06-22T03:05:23;16.40;;;8.40;;
9821;SDS011;4950;46.042;14.472;2023-06-22T03:07:51;13.73;;;8.00;;
9821;SDS011;4950;46.042;14.472;2023-06-22T03:10:19;15.23;;;8.52;;
9821;SDS011;4950;46.042;14.472;2023-06-22T03:12:46;14.65;;;9.15;;
9821;SDS011;4950;46.042;14.472;2023-06-22T03:15:12;13.82;;;8.35;;
9821;SDS011;4950;46.042;14.472;2023-06-22T03:17:39;14.25;;;8.35;;
9821;SDS011;4950;46.042;14.472;2023-06-22T03:20:07;15.63;;;8.75;;
9821;SDS011;4950;46.042;14.472;2023-06-22T03:22:35;14.15;;;8.55;;
9821;SDS011;4950;46.042;14.472;2023-06-22T03:25:03;16.83;;;9.05;;
9821;SDS011;4950;46.042;14.472;2023-06-22T03:27:36;11.13;;;8.32;;
9821;SDS011;4950;46.042;14.472;2023-06-22T03:30:03;16.02;;;9.75;;
9821;SDS011;4950;46.042;14.472;2023-06-22T03:32:30;15.20;;;8.27;;
9821;SDS011;4950;46.042;14.472;2023-06-22T03:34:56;12.98;;;8.98;;
9821;SDS011;4950;46.042;14.472;2023-06-22T03:37:24;16.00;;;8.45;;
9821;SDS011;4950;46.042;14.472;2023-06-22T03:39:50;17.23;;;8.90;;
9821;SDS011;4950;46.042;14.472;2023-06-22T03:42:17;19.02;;;8.88;;
9821;SDS011;4950;46.042;14.472;2023-06-22T03:44:45;12.57;;;8.40;;
9821;SDS011;4950;46.042;14.472;2023-06-22T03:47:12;14.83;;;8.53;;
9821;SDS011;4950;46.042;14.472;2023-06-22T03:49:38;16.25;;;9.45;;
9821;SDS011;4950;46.042;14.472;2023-06-22T03:52:05;17.80;;;8.93;;
9821;SDS011;4950;46.042;14.472;2023-06-22T03:54:32;15.75;;;9.02;;
9821;SDS011;4950;46.042;14.472;2023-06-22T03:56:59;16.73;;;9.05;;
9821;SDS011;4950;46.042;14.472;2023-06-22T03:59:26;14.80;;;9.38;;
9821;SDS011;4950;46.042;14.472;2023-06-22T04:01:54;16.58;;;9.50;;
9821;SDS011;4950;46.042;14.472;2023-06-22T04:04:20;15.07;;;9.97;;
9821;SDS011;4950;46.042;14.472;2023-06-22T04:06:47;14.75;;;8.85;;
9821;SDS011;4950;46.042;14.472;2023-06-22T04:09:13;16.75;;;8.60;;
9821;SDS011;4950;46.042;14.472;2023-06-22T04:11:40;16.17;;;9.23;;
9821;SDS011;4950;46.042;14.472;2023-06-22T04:14:07;13.43;;;9.27;;
9821;SDS011;4950;46.042;14.472;2023-06-22T04:16:33;14.73;;;8.85;;
9821;SDS011;4950;46.042;14.472;2023-06-22T04:19:01;16.02;;;9.48;;
9821;SDS011;4950;46.042;14.472;2023-06-22T04:21:28;13.43;;;8.97;;
9821;SDS011;4950;46.042;14.472;2023-06-22T04:23:54;16.15;;;9.63;;
9821;SDS011;4950;46.042;14.472;2023-06-22T04:26:21;18.33;;;9.80;;
9821;SDS011;4950;46.042;14.472;2023-06-22T04:28:48;17.85;;;9.18;;
9821;SDS011;4950;46.042;14.472;2023-06-22T04:31:16;17.23;;;9.75;;
9821;SDS011;4950;46.042;14.472;2023-06-22T04:33:44;14.93;;;9.25;;
9821;SDS011;4950;46.042;14.472;2023-06-22T04:36:12;15.57;;;10.15;;
9821;SDS011;4950;46.042;14.472;2023-06-22T04:38:40;14.48;;;9.02;;
9821;SDS011;4950;46.042;14.472;2023-06-22T04:41:07;15.15;;;8.45;;
9821;SDS011;4950;46.042;14.472;2023-06-22T04:43:39;13.30;;;9.43;;
9821;SDS011;4950;46.042;14.472;2023-06-22T04:46:05;17.35;;;10.30;;
9821;SDS011;4950;46.042;14.472;2023-06-22T04:48:32;15.13;;;9.15;;
9821;SDS011;4950;46.042;14.472;2023-06-22T04:50:59;13.68;;;9.23;;
9821;SDS011;4950;46.042;14.472;2023-06-22T04:53:30;15.93;;;10.18;;
9821;SDS011;4950;46.042;14.472;2023-06-22T04:55:56;20.67;;;9.90;;
9821;SDS011;4950;46.042;14.472;2023-06-22T04:58:23;12.15;;;8.63;;
9821;SDS011;4950;46.042;14.472;2023-06-22T05:00:52;18.48;;;11.02;;
9821;SDS011;4950;46.042;14.472;2023-06-22T05:03:22;15.75;;;10.40;;
9821;SDS011;4950;46.042;14.472;2023-06-22T05:08:18;21.80;;;12.10;;
9821;SDS011;4950;46.042;14.472;2023-06-22T05:10:46;18.67;;;11.52;;
9821;SDS011;4950;46.042;14.472;2023-06-22T05:13:13;21.13;;;11.13;;
9821;SDS011;4950;46.042;14.472;2023-06-22T05:15:40;15.57;;;10.95;;
9821;SDS011;4950;46.042;14.472;2023-06-22T05:18:06;17.00;;;10.05;;
9821;SDS011;4950;46.042;14.472;2023-06-22T05:20:33;17.30;;;10.48;;
9821;SDS011;4950;46.042;14.472;2023-06-22T05:23:01;18.83;;;9.73;;
9821;SDS011;4950;46.042;14.472;2023-06-22T05:25:27;17.25;;;10.07;;
9821;SDS011;4950;46.042;14.472;2023-06-22T05:27:56;18.58;;;10.13;;
9821;SDS011;4950;46.042;14.472;2023-06-22T05:30:23;16.03;;;9.17;;
9821;SDS011;4950;46.042;14.472;2023-06-22T05:32:49;20.98;;;10.48;;
9821;SDS011;4950;46.042;14.472;2023-06-22T05:35:17;18.42;;;10.00;;
9821;SDS011;4950;46.042;14.472;2023-06-22T05:37:44;18.00;;;10.93;;
9821;SDS011;4950;46.042;14.472;2023-06-22T05:40:11;22.08;;;10.13;;
9821;SDS011;4950;46.042;14.472;2023-06-22T05:42:38;20.42;;;10.75;;
9821;SDS011;4950;46.042;14.472;2023-06-22T05:45:07;22.25;;;11.00;;
9821;SDS011;4950;46.042;14.472;2023-06-22T05:50:00;19.40;;;11.85;;
9821;SDS011;4950;46.042;14.472;2023-06-22T05:52:31;27.40;;;11.85;;
9821;SDS011;4950;46.042;14.472;2023-06-22T05:54:58;23.05;;;12.75;;
9821;SDS011;4950;46.042;14.472;2023-06-22T05:57:24;22.75;;;13.38;;
9821;SDS011;4950;46.042;14.472;2023-06-22T05:59:51;19.88;;;12.45;;
9821;SDS011;4950;46.042;14.472;2023-06-22T06:02:20;22.85;;;12.27;;
9821;SDS011;4950;46.042;14.472;2023-06-22T06:04:46;27.13;;;13.55;;
9821;SDS011;4950;46.042;14.472;2023-06-22T06:07:13;24.92;;;12.00;;
9821;SDS011;4950;46.042;14.472;2023-06-22T06:09:40;22.98;;;12.07;;
9821;SDS011;4950;46.042;14.472;2023-06-22T06:12:07;19.30;;;12.50;;
9821;SDS011;4950;46.042;14.472;2023-06-22T06:14:34;19.20;;;12.13;;
9821;SDS011;4950;46.042;14.472;2023-06-22T06:17:00;16.00;;;11.05;;
9821;SDS011;4950;46.042;14.472;2023-06-22T06:19:28;21.75;;;12.70;;
9821;SDS011;4950;46.042;14.472;2023-06-22T06:21:55;25.07;;;11.30;;
9821;SDS011;4950;46.042;14.472;2023-06-22T06:24:21;19.58;;;11.13;;
9821;SDS011;4950;46.042;14.472;2023-06-22T06:26:48;26.73;;;12.70;;
9821;SDS011;4950;46.042;14.472;2023-06-22T06:29:15;21.50;;;11.80;;
9821;SDS011;4950;46.042;14.472;2023-06-22T06:31:42;25.13;;;12.15;;
9821;SDS011;4950;46.042;14.472;2023-06-22T06:34:09;25.52;;;12.20;;
9821;SDS011;4950;46.042;14.472;2023-06-22T06:36:36;32.90;;;12.30;;
9821;SDS011;4950;46.042;14.472;2023-06-22T06:39:03;20.00;;;10.63;;
9821;SDS011;4950;46.042;14.472;2023-06-22T06:41:30;25.10;;;11.73;;
9821;SDS011;4950;46.042;14.472;2023-06-22T06:43:57;15.85;;;10.55;;
9821;SDS011;4950;46.042;14.472;2023-06-22T06:46:23;15.40;;;10.57;;
9821;SDS011;4950;46.042;14.472;2023-06-22T06:48:50;17.17;;;9.98;;
9821;SDS011;4950;46.042;14.472;2023-06-22T06:51:17;17.52;;;10.30;;
9821;SDS011;4950;46.042;14.472;2023-06-22T06:53:46;21.33;;;11.02;;
9821;SDS011;4950;46.042;14.472;2023-06-22T06:56:13;28.75;;;11.68;;
9821;SDS011;4950;46.042;14.472;2023-06-22T06:58:40;20.33;;;10.90;;
9821;SDS011;4950;46.042;14.472;2023-06-22T07:01:08;20.75;;;9.95;;
9821;SDS011;4950;46.042;14.472;2023-06-22T07:03:34;23.08;;;10.32;;
9821;SDS011;4950;46.042;14.472;2023-06-22T07:06:01;18.58;;;10.35;;
9821;SDS011;4950;46.042;14.472;2023-06-22T07:08:27;18.10;;;10.68;;
9821;SDS011;4950;46.042;14.472;2023-06-22T07:10:56;16.63;;;9.57;;
9821;SDS011;4950;46.042;14.472;2023-06-22T07:13:23;16.00;;;9.25;;
9821;SDS011;4950;46.042;14.472;2023-06-22T07:15:49;20.65;;;10.63;;
9821;SDS011;4950;46.042;14.472;2023-06-22T07:18:16;23.67;;;10.43;;
9821;SDS011;4950;46.042;14.472;2023-06-22T07:20:42;20.35;;;10.07;;
9821;SDS011;4950;46.042;14.472;2023-06-22T07:23:09;19.25;;;10.02;;
9821;SDS011;4950;46.042;14.472;2023-06-22T07:25:36;15.32;;;9.90;;
9821;SDS011;4950;46.042;14.472;2023-06-22T07:28:06;16.38;;;9.00;;
9821;SDS011;4950;46.042;14.472;2023-06-22T07:30:33;21.88;;;10.10;;
9821;SDS011;4950;46.042;14.472;2023-06-22T07:33:00;14.98;;;9.55;;
9821;SDS011;4950;46.042;14.472;2023-06-22T07:35:29;19.58;;;9.55;;
9821;SDS011;4950;46.042;14.472;2023-06-22T07:37:56;22.70;;;10.15;;
9821;SDS011;4950;46.042;14.472;2023-06-22T07:40:23;20.80;;;9.20;;
9821;SDS011;4950;46.042;14.472;2023-06-22T07:42:49;16.70;;;10.43;;
9821;SDS011;4950;46.042;14.472;2023-06-22T07:45:19;16.05;;;10.60;;
9821;SDS011;4950;46.042;14.472;2023-06-22T07:47:46;26.70;;;11.20;;
9821;SDS011;4950;46.042;14.472;2023-06-22T07:50:13;20.92;;;9.63;;
9821;SDS011;4950;46.042;14.472;2023-06-22T07:52:40;16.50;;;9.73;;
9821;SDS011;4950;46.042;14.472;2023-06-22T07:55:07;20.05;;;9.63;;
9821;SDS011;4950;46.042;14.472;2023-06-22T07:57:34;12.95;;;9.20;;
9821;SDS011;4950;46.042;14.472;2023-06-22T08:00:01;18.75;;;8.98;;
9821;SDS011;4950;46.042;14.472;2023-06-22T08:02:37;19.55;;;9.40;;
9821;SDS011;4950;46.042;14.472;2023-06-22T08:05:04;18.08;;;9.93;;
9821;SDS011;4950;46.042;14.472;2023-06-22T08:07:33;20.45;;;8.80;;
9821;SDS011;4950;46.042;14.472;2023-06-22T08:10:00;22.02;;;9.55;;
9821;SDS011;4950;46.042;14.472;2023-06-22T08:12:27;17.15;;;8.80;;
9821;SDS011;4950;46.042;14.472;2023-06-22T08:14:54;20.67;;;9.95;;
9821;SDS011;4950;46.042;14.472;2023-06-22T08:17:21;26.92;;;10.60;;
9821;SDS011;4950;46.042;14.472;2023-06-22T08:19:50;14.20;;;9.00;;
9821;SDS011;4950;46.042;14.472;2023-06-22T08:22:16;18.95;;;9.05;;
9821;SDS011;4950;46.042;14.472;2023-06-22T08:24:44;21.48;;;9.02;;
9821;SDS011;4950;46.042;14.472;2023-06-22T08:27:10;21.05;;;8.68;;
9821;SDS011;4950;46.042;14.472;2023-06-22T08:29:38;18.30;;;9.15;;
9821;SDS011;4950;46.042;14.472;2023-06-22T08:34:34;19.70;;;9.23;;
9821;SDS011;4950;46.042;14.472;2023-06-22T08:37:02;15.65;;;8.50;;
9821;SDS011;4950;46.042;14.472;2023-06-22T08:39:31;15.95;;;8.27;;
9821;SDS011;4950;46.042;14.472;2023-06-22T08:41:58;17.13;;;8.68;;
9821;SDS011;4950;46.042;14.472;2023-06-22T08:44:25;15.93;;;8.88;;
9821;SDS011;4950;46.042;14.472;2023-06-22T08:46:51;17.13;;;8.90;;
9821;SDS011;4950;46.042;14.472;2023-06-22T08:49:18;20.45;;;8.73;;
9821;SDS011;4950;46.042;14.472;2023-06-22T08:51:45;17.40;;;8.70;;
9821;SDS011;4950;46.042;14.472;2023-06-22T08:54:15;15.20;;;8.45;;
9821;SDS011;4950;46.042;14.472;2023-06-22T08:56:42;16.42;;;8.13;;
9821;SDS011;4950;46.042;14.472;2023-06-22T08:59:09;16.30;;;9.00;;
9821;SDS011;4950;46.042;14.472;2023-06-22T09:01:35;21.02;;;8.18;;
9821;SDS011;4950;46.042;14.472;2023-06-22T09:04:02;18.00;;;8.82;;
9821;SDS011;4950;46.042;14.472;2023-06-22T09:06:31;13.27;;;8.43;;
9821;SDS011;4950;46.042;14.472;2023-06-22T09:08:57;23.35;;;7.97;;
9821;SDS011;4950;46.042;14.472;2023-06-22T09:11:27;18.10;;;8.43;;
9821;SDS011;4950;46.042;14.472;2023-06-22T09:13:53;16.17;;;8.40;;
9821;SDS011;4950;46.042;14.472;2023-06-22T09:16:20;14.52;;;7.90;;
9821;SDS011;4950;46.042;14.472;2023-06-22T09:18:47;19.98;;;9.77;;
9821;SDS011;4950;46.042;14.472;2023-06-22T09:21:14;18.10;;;8.80;;
9821;SDS011;4950;46.042;14.472;2023-06-22T09:23:41;16.77;;;8.18;;
9821;SDS011;4950;46.042;14.472;2023-06-22T09:26:08;19.83;;;8.15;;
9821;SDS011;4950;46.042;14.472;2023-06-22T09:28:36;19.48;;;9.75;;
9821;SDS011;4950;46.042;14.472;2023-06-22T09:31:02;16.05;;;8.90;;
9821;SDS011;4950;46.042;14.472;2023-06-22T09:33:29;16.80;;;8.50;;
9821;SDS011;4950;46.042;14.472;2023-06-22T09:35:56;15.88;;;9.07;;
9821;SDS011;4950;46.042;14.472;2023-06-22T09:38:22;16.95;;;8.20;;
9821;SDS011;4950;46.042;14.472;2023-06-22T09:40:49;22.67;;;9.45;;
9821;SDS011;4950;46.042;14.472;2023-06-22T09:43:15;15.55;;;8.30;;
9821;SDS011;4950;46.042;14.472;2023-06-22T09:45:44;17.67;;;8.73;;
9821;SDS011;4950;46.042;14.472;2023-06-22T09:48:11;24.25;;;8.82;;
9821;SDS011;4950;46.042;14.472;2023-06-22T09:50:37;18.08;;;8.57;;
9821;SDS011;4950;46.042;14.472;2023-06-22T09:53:04;22.38;;;8.10;;
9821;SDS011;4950;46.042;14.472;2023-06-22T09:55:30;15.75;;;8.77;;
9821;SDS011;4950;46.042;14.472;2023-06-22T09:57:57;14.00;;;7.70;;
9821;SDS011;4950;46.042;14.472;2023-06-22T10:00:24;20.40;;;8.40;;
9821;SDS011;4950;46.042;14.472;2023-06-22T10:02:53;22.93;;;8.43;;
9821;SDS011;4950;46.042;14.472;2023-06-22T10:05:20;15.20;;;8.13;;
9821;SDS011;4950;46.042;14.472;2023-06-22T10:07:47;17.75;;;8.05;;
9821;SDS011;4950;46.042;14.472;2023-06-22T10:10:14;13.82;;;7.88;;
9821;SDS011;4950;46.042;14.472;2023-06-22T10:12:41;20.10;;;7.97;;
9821;SDS011;4950;46.042;14.472;2023-06-22T10:15:10;15.73;;;7.93;;
9821;SDS011;4950;46.042;14.472;2023-06-22T10:17:37;18.00;;;7.97;;
9821;SDS011;4950;46.042;14.472;2023-06-22T10:20:05;14.45;;;7.63;;
9821;SDS011;4950;46.042;14.472;2023-06-22T10:22:36;16.63;;;8.15;;
9821;SDS011;4950;46.042;14.472;2023-06-22T10:25:04;13.65;;;8.18;;
9821;SDS011;4950;46.042;14.472;2023-06-22T10:27:31;15.50;;;8.02;;
9821;SDS011;4950;46.042;14.472;2023-06-22T10:29:58;14.82;;;8.25;;
9821;SDS011;4950;46.042;14.472;2023-06-22T10:32:24;19.55;;;8.10;;
9821;SDS011;4950;46.042;14.472;2023-06-22T10:34:53;22.10;;;9.43;;
9821;SDS011;4950;46.042;14.472;2023-06-22T10:37:21;17.15;;;7.47;;
9821;SDS011;4950;46.042;14.472;2023-06-22T10:39:48;18.30;;;7.78;;
9821;SDS011;4950;46.042;14.472;2023-06-22T10:42:14;15.15;;;8.23;;
9821;SDS011;4950;46.042;14.472;2023-06-22T10:44:41;15.15;;;8.57;;
9821;SDS011;4950;46.042;14.472;2023-06-22T10:47:10;15.88;;;8.68;;
9821;SDS011;4950;46.042;14.472;2023-06-22T10:49:37;28.97;;;8.77;;
9821;SDS011;4950;46.042;14.472;2023-06-22T10:52:04;13.65;;;8.70;;
9821;SDS011;4950;46.042;14.472;2023-06-22T10:54:33;18.30;;;8.40;;
9821;SDS011;4950;46.042;14.472;2023-06-22T10:57:00;21.55;;;8.55;;
9821;SDS011;4950;46.042;14.472;2023-06-22T10:59:28;16.20;;;7.95;;
9821;SDS011;4950;46.042;14.472;2023-06-22T11:01:54;24.90;;;9.00;;
9821;SDS011;4950;46.042;14.472;2023-06-22T11:04:21;15.55;;;8.57;;
9821;SDS011;4950;46.042;14.472;2023-06-22T11:06:48;20.48;;;8.68;;
9821;SDS011;4950;46.042;14.472;2023-06-22T11:09:15;17.90;;;8.48;;
9821;SDS011;4950;46.042;14.472;2023-06-22T11:11:46;14.15;;;8.48;;
9821;SDS011;4950;46.042;14.472;2023-06-22T11:14:13;29.08;;;8.77;;
9821;SDS011;4950;46.042;14.472;2023-06-22T11:16:40;19.63;;;9.48;;
9821;SDS011;4950;46.042;14.472;2023-06-22T11:19:06;15.55;;;8.05;;
9821;SDS011;4950;46.042;14.472;2023-06-22T11:21:33;14.38;;;9.05;;
9821;SDS011;4950;46.042;14.472;2023-06-22T11:23:59;19.98;;;8.48;;
9821;SDS011;4950;46.042;14.472;2023-06-22T11:26:26;18.67;;;9.10;;
9821;SDS011;4950;46.042;14.472;2023-06-22T11:28:54;20.60;;;8.90;;
9821;SDS011;4950;46.042;14.472;2023-06-22T11:31:21;14.35;;;8.57;;
9821;SDS011;4950;46.042;14.472;2023-06-22T11:33:48;18.65;;;8.95;;
9821;SDS011;4950;46.042;14.472;2023-06-22T11:36:15;14.23;;;8.60;;
9821;SDS011;4950;46.042;14.472;2023-06-22T11:38:41;17.90;;;8.80;;
9821;SDS011;4950;46.042;14.472;2023-06-22T11:41:08;14.18;;;8.48;;
9821;SDS011;4950;46.042;14.472;2023-06-22T11:43:36;17.30;;;8.97;;
9821;SDS011;4950;46.042;14.472;2023-06-22T11:46:04;18.53;;;9.73;;
9821;SDS011;4950;46.042;14.472;2023-06-22T11:50:57;22.80;;;8.35;;
9821;SDS011;4950;46.042;14.472;2023-06-22T11:53:25;17.98;;;8.18;;
9821;SDS011;4950;46.042;14.472;2023-06-22T11:55:53;23.08;;;8.30;;
9821;SDS011;4950;46.042;14.472;2023-06-22T11:58:20;16.85;;;8.10;;
9821;SDS011;4950;46.042;14.472;2023-06-22T12:00:47;20.08;;;7.80;;
9821;SDS011;4950;46.042;14.472;2023-06-22T12:03:15;23.58;;;7.90;;
9821;SDS011;4950;46.042;14.472;2023-06-22T12:08:08;16.55;;;7.63;;
9821;SDS011;4950;46.042;14.472;2023-06-22T12:10:35;22.50;;;8.30;;
9821;SDS011;4950;46.042;14.472;2023-06-22T12:13:02;25.95;;;8.50;;
9821;SDS011;4950;46.042;14.472;2023-06-22T12:15:28;16.15;;;8.02;;
9821;SDS011;4950;46.042;14.472;2023-06-22T12:17:55;21.70;;;8.88;;
9821;SDS011;4950;46.042;14.472;2023-06-22T12:20:23;16.60;;;7.72;;
9821;SDS011;4950;46.042;14.472;2023-06-22T12:22:49;23.35;;;7.95;;
9821;SDS011;4950;46.042;14.472;2023-06-22T12:25:16;21.45;;;8.32;;
9821;SDS011;4950;46.042;14.472;2023-06-22T12:27:43;20.17;;;7.78;;
9821;SDS011;4950;46.042;14.472;2023-06-22T12:30:10;18.17;;;8.18;;
9821;SDS011;4950;46.042;14.472;2023-06-22T12:32:36;14.93;;;7.63;;
9821;SDS011;4950;46.042;14.472;2023-06-22T12:35:03;16.45;;;8.15;;
9821;SDS011;4950;46.042;14.472;2023-06-22T12:37:33;17.17;;;8.50;;
9821;SDS011;4950;46.042;14.472;2023-06-22T12:40:00;20.92;;;8.13;;
9821;SDS011;4950;46.042;14.472;2023-06-22T12:42:28;20.42;;;8.77;;
9821;SDS011;4950;46.042;14.472;2023-06-22T12:44:55;22.75;;;7.88;;
9821;SDS011;4950;46.042;14.472;2023-06-22T12:47:21;25.55;;;8.02;;
9821;SDS011;4950;46.042;14.472;2023-06-22T12:49:48;19.23;;;8.68;;
9821;SDS011;4950;46.042;14.472;2023-06-22T12:52:15;28.83;;;8.55;;
9821;SDS011;4950;46.042;14.472;2023-06-22T12:54:43;22.25;;;8.73;;
9821;SDS011;4950;46.042;14.472;2023-06-22T12:57:10;20.40;;;8.60;;
9821;SDS011;4950;46.042;14.472;2023-06-22T12:59:36;21.02;;;8.82;;
9821;SDS011;4950;46.042;14.472;2023-06-22T13:02:03;22.48;;;8.65;;
9821;SDS011;4950;46.042;14.472;2023-06-22T13:04:30;25.67;;;8.73;;
9821;SDS011;4950;46.042;14.472;2023-06-22T13:06:57;25.35;;;9.38;;
9821;SDS011;4950;46.042;14.472;2023-06-22T13:09:23;24.95;;;9.13;;
9821;SDS011;4950;46.042;14.472;2023-06-22T13:11:51;19.40;;;8.48;;
9821;SDS011;4950;46.042;14.472;2023-06-22T13:16:44;29.33;;;8.60;;
9821;SDS011;4950;46.042;14.472;2023-06-22T13:19:11;20.02;;;8.88;;
9821;SDS011;4950;46.042;14.472;2023-06-22T13:21:38;21.45;;;8.68;;
9821;SDS011;4950;46.042;14.472;2023-06-22T13:24:05;24.75;;;9.38;;
9821;SDS011;4950;46.042;14.472;2023-06-22T13:26:32;21.67;;;9.48;;
9821;SDS011;4950;46.042;14.472;2023-06-22T13:29:00;24.52;;;9.55;;
9821;SDS011;4950;46.042;14.472;2023-06-22T13:31:27;25.10;;;9.25;;
9821;SDS011;4950;46.042;14.472;2023-06-22T13:33:54;19.73;;;9.63;;
9821;SDS011;4950;46.042;14.472;2023-06-22T13:36:20;20.27;;;9.27;;
9821;SDS011;4950;46.042;14.472;2023-06-22T13:38:48;18.95;;;8.85;;
9821;SDS011;4950;46.042;14.472;2023-06-22T13:41:14;19.95;;;9.93;;
9821;SDS011;4950;46.042;14.472;2023-06-22T13:43:41;25.27;;;9.77;;
9821;SDS011;4950;46.042;14.472;2023-06-22T13:46:09;16.25;;;9.75;;
9821;SDS011;4950;46.042;14.472;2023-06-22T13:48:36;20.13;;;10.20;;
9821;SDS011;4950;46.042;14.472;2023-06-22T13:51:02;23.55;;;10.48;;
9821;SDS011;4950;46.042;14.472;2023-06-22T13:53:29;21.95;;;10.05;;
9821;SDS011;4950;46.042;14.472;2023-06-22T13:55:56;19.52;;;10.07;;
9821;SDS011;4950;46.042;14.472;2023-06-22T13:58:22;19.63;;;10.98;;
9821;SDS011;4950;46.042;14.472;2023-06-22T14:00:49;19.15;;;11.23;;
9821;SDS011;4950;46.042;14.472;2023-06-22T14:03:17;26.17;;;10.45;;
9821;SDS011;4950;46.042;14.472;2023-06-22T14:05:44;17.83;;;10.52;;
9821;SDS011;4950;46.042;14.472;2023-06-22T14:08:11;30.40;;;11.45;;
9821;SDS011;4950;46.042;14.472;2023-06-22T14:10:38;30.58;;;12.02;;
9821;SDS011;4950;46.042;14.472;2023-06-22T14:13:04;22.42;;;11.13;;
9821;SDS011;4950;46.042;14.472;2023-06-22T14:15:31;24.33;;;12.05;;
9821;SDS011;4950;46.042;14.472;2023-06-22T14:17:58;23.88;;;11.90;;
9821;SDS011;4950;46.042;14.472;2023-06-22T14:20:26;22.48;;;11.77;;
9821;SDS011;4950;46.042;14.472;2023-06-22T14:22:53;18.42;;;11.43;;
9821;SDS011;4950;46.042;14.472;2023-06-22T14:25:20;18.65;;;12.05;;
9821;SDS011;4950;46.042;14.472;2023-06-22T14:27:46;17.40;;;12.45;;
9821;SDS011;4950;46.042;14.472;2023-06-22T14:30:13;21.48;;;11.52;;
9821;SDS011;4950;46.042;14.472;2023-06-22T14:32:40;24.77;;;10.88;;
9821;SDS011;4950;46.042;14.472;2023-06-22T14:35:09;22.70;;;10.80;;
9821;SDS011;4950;46.042;14.472;2023-06-22T14:37:37;21.15;;;10.90;;
9821;SDS011;4950;46.042;14.472;2023-06-22T14:40:04;22.73;;;11.30;;
9821;SDS011;4950;46.042;14.472;2023-06-22T14:42:32;17.27;;;10.40;;
9821;SDS011;4950;46.042;14.472;2023-06-22T14:44:58;23.50;;;12.85;;
9821;SDS011;4950;46.042;14.472;2023-06-22T14:47:25;19.65;;;10.55;;
9821;SDS011;4950;46.042;14.472;2023-06-22T14:49:52;25.30;;;11.32;;
9821;SDS011;4950;46.042;14.472;2023-06-22T14:52:20;23.88;;;10.90;;
9821;SDS011;4950;46.042;14.472;2023-06-22T14:54:48;17.25;;;10.55;;
9821;SDS011;4950;46.042;14.472;2023-06-22T14:57:16;22.90;;;11.18;;
9821;SDS011;4950;46.042;14.472;2023-06-22T14:59:45;20.58;;;11.43;;
9821;SDS011;4950;46.042;14.472;2023-06-22T15:02:11;19.67;;;11.43;;